Airfield :







YOU CAN JOIN US ON...

 
LOGIN :

Register | Disclaimer

   EN    FR    IT 

 









Legend :    VFR   Marginal VFR   IFR   Intensive IFR   Very Intensive IFR
Visi :
Ceiling :
>= 8 km
>= 3000ft
5 to 8 km
1000 to 3000 ft
1500m to 5 km
500 to 1000 ft
800 to 1500m
200 to 500 ft
< 800m
< 200 ft
Symbols :   Thunderstorms  Fog  Heavy snow  Heavy precipitations  Wind > 20 kt






- Airport Elevation : 23 ft
- IATA code : STT


TIST - King

CURRENT METAR :
  • 030253Z AUTO 00000KT 10SM CLR 25/20 A3000 RMK AO2 SLP158 T02500200 51006

EXPIRED METARs :
  • 030153Z 07003KT 10SM CLR 25/20 A2999 RMK AO2 SLP156 T02500200

TAF TIST
Valid from the 03 at 00:00 until the 04 at 00:00 UTC


022339Z 0300/0324 06004KT P6SM VCSH SKC
FM031400 08010KT P6SM FEW030
FM032100 06004KT P6SM SCT030 SCT045
TJZS FIR / North America



MET'MAP, your aeronautical weather chart ! - Copyright ORBIFLY December 2007 - Disclaimer

ORBIFLY MET'MAP TEAM :

Programming & Development : Alexandra Zaïnal
Concept & original design : Baudouin d'Aumeries
Assistance for programming : Marc-Olivier Méhu
Technical & hardware support : Manuel Goepfert

Contact : metmap@orbifly.com




SOURCES & CREDITS :

   NOAA